createdAt,value
2023-03-20T00:12:40.090Z,91.5
2023-03-20T00:32:40.090Z,91.2
2023-03-20T00:52:40.085Z,91.0
2023-03-20T01:12:40.030Z,91.0
2023-03-20T01:32:39.995Z,90.8
2023-03-20T01:52:40.001Z,90.8
2023-03-20T02:12:40.008Z,90.5
2023-03-20T02:32:39.997Z,90.6
2023-03-20T02:52:40.010Z,90.8
2023-03-20T03:12:39.986Z,90.8
2023-03-20T03:32:39.984Z,90.7
2023-03-20T03:52:39.992Z,90.5
2023-03-20T04:12:39.994Z,90.0
2023-03-20T04:32:39.885Z,89.4
2023-03-20T04:52:39.893Z,89.1
2023-03-20T05:12:39.887Z,89.2
2023-03-20T05:32:39.878Z,89.1
2023-03-20T05:52:39.890Z,89.0
2023-03-20T06:12:39.911Z,89.0
2023-03-20T06:32:39.900Z,88.8
2023-03-20T06:52:39.895Z,89.1
2023-03-20T07:12:39.805Z,88.6
2023-03-20T07:32:39.819Z,88.0
2023-03-20T07:52:39.835Z,87.2
2023-03-20T08:12:39.828Z,86.6
2023-03-20T08:32:39.848Z,85.0
2023-03-20T08:52:39.790Z,83.5
2023-03-20T09:12:39.777Z,83.1
2023-03-20T09:32:39.779Z,82.6
2023-03-20T09:52:39.759Z,81.6
2023-03-20T10:12:39.905Z,81.2
2023-03-20T10:32:39.724Z,79.6
2023-03-20T10:52:39.664Z,76.2
2023-03-20T11:12:39.680Z,73.6
2023-03-20T11:32:39.689Z,71.5
2023-03-20T11:52:39.685Z,72.7
2023-03-20T12:12:39.621Z,70.7
2023-03-20T12:32:39.610Z,76.0
2023-03-20T12:52:39.609Z,74.7
2023-03-20T13:12:39.611Z,72.7
2023-03-20T13:32:39.562Z,71.6
2023-03-20T13:52:39.536Z,70.5
2023-03-20T14:12:39.561Z,70.2
2023-03-20T14:32:39.535Z,68.6
2023-03-20T14:52:39.447Z,68.6
2023-03-20T15:12:39.446Z,68.3
2023-03-20T15:32:39.447Z,65.8
2023-03-20T15:52:39.462Z,66.6
2023-03-20T16:12:39.486Z,68.1
2023-03-20T16:32:39.407Z,70.9
2023-03-20T16:52:39.467Z,74.2
2023-03-20T17:12:39.312Z,75.1
2023-03-20T17:32:39.334Z,78.8
2023-03-20T17:52:39.339Z,81.3
2023-03-20T18:12:39.352Z,83.2
2023-03-20T18:32:39.356Z,85.6
2023-03-20T18:52:39.248Z,86.7
2023-03-20T19:12:39.264Z,87.4
2023-03-20T19:32:39.276Z,88.0
2023-03-20T19:52:39.270Z,88.2
2023-03-20T20:12:39.278Z,87.4
2023-03-20T20:32:39.286Z,88.6
2023-03-20T20:52:39.269Z,88.8
2023-03-20T21:12:39.290Z,89.1
2023-03-20T21:32:39.288Z,89.7
2023-03-20T21:52:39.415Z,90.0
2023-03-20T22:12:39.289Z,90.4
2023-03-20T22:32:39.299Z,89.9
2023-03-20T22:52:39.299Z,90.4
2023-03-20T23:12:39.301Z,90.3
2023-03-20T23:32:39.286Z,89.6
2023-03-20T23:52:39.314Z,88.8
